sensor_id;sensor_type;location;lat;lon;timestamp;P1;durP1;ratioP1;P2;durP2;ratioP2
34549;SDS011;66080;52.078;5.626;2023-07-29T00:01:07;2.72;;;1.85;;
34549;SDS011;66080;52.078;5.626;2023-07-29T00:03:33;2.10;;;1.90;;
34549;SDS011;66080;52.078;5.626;2023-07-29T00:05:59;9.00;;;1.70;;
34549;SDS011;66080;52.078;5.626;2023-07-29T00:08:24;3.45;;;2.03;;
34549;SDS011;66080;52.078;5.626;2023-07-29T00:10:50;6.30;;;2.25;;
34549;SDS011;66080;52.078;5.626;2023-07-29T00:13:15;2.53;;;2.22;;
34549;SDS011;66080;52.078;5.626;2023-07-29T00:15:41;5.22;;;2.05;;
34549;SDS011;66080;52.078;5.626;2023-07-29T00:18:06;5.63;;;2.17;;
34549;SDS011;66080;52.078;5.626;2023-07-29T00:20:32;3.92;;;1.98;;
34549;SDS011;66080;52.078;5.626;2023-07-29T00:22:57;1.65;;;1.55;;
34549;SDS011;66080;52.078;5.626;2023-07-29T00:25:23;2.03;;;1.83;;
34549;SDS011;66080;52.078;5.626;2023-07-29T00:27:49;4.13;;;1.80;;
34549;SDS011;66080;52.078;5.626;2023-07-29T00:30:15;1.50;;;1.40;;
34549;SDS011;66080;52.078;5.626;2023-07-29T00:32:40;2.28;;;1.70;;
34549;SDS011;66080;52.078;5.626;2023-07-29T00:35:06;4.22;;;1.60;;
34549;SDS011;66080;52.078;5.626;2023-07-29T00:37:32;2.55;;;1.65;;
34549;SDS011;66080;52.078;5.626;2023-07-29T00:39:57;2.00;;;1.80;;
34549;SDS011;66080;52.078;5.626;2023-07-29T00:42:23;3.97;;;2.03;;
34549;SDS011;66080;52.078;5.626;2023-07-29T00:44:49;2.42;;;2.03;;
34549;SDS011;66080;52.078;5.626;2023-07-29T00:47:15;2.50;;;2.30;;
34549;SDS011;66080;52.078;5.626;2023-07-29T00:49:41;1.55;;;1.42;;
34549;SDS011;66080;52.078;5.626;2023-07-29T00:52:09;5.45;;;1.75;;
34549;SDS011;66080;52.078;5.626;2023-07-29T00:54:37;3.63;;;2.40;;
34549;SDS011;66080;52.078;5.626;2023-07-29T00:57:06;5.10;;;2.63;;
34549;SDS011;66080;52.078;5.626;2023-07-29T00:59:35;5.45;;;1.83;;
34549;SDS011;66080;52.078;5.626;2023-07-29T01:02:01;4.13;;;1.85;;
34549;SDS011;66080;52.078;5.626;2023-07-29T01:04:27;3.97;;;1.70;;
34549;SDS011;66080;52.078;5.626;2023-07-29T01:06:55;2.40;;;2.20;;
34549;SDS011;66080;52.078;5.626;2023-07-29T01:12:56;5.38;;;2.25;;
34549;SDS011;66080;52.078;5.626;2023-07-29T01:18:05;2.90;;;1.98;;
34549;SDS011;66080;52.078;5.626;2023-07-29T01:20:34;4.63;;;2.75;;
34549;SDS011;66080;52.078;5.626;2023-07-29T01:23:03;2.47;;;1.77;;
34549;SDS011;66080;52.078;5.626;2023-07-29T01:25:29;4.00;;;2.65;;
34549;SDS011;66080;52.078;5.626;2023-07-29T01:27:55;3.83;;;2.75;;
34549;SDS011;66080;52.078;5.626;2023-07-29T01:30:21;3.30;;;2.33;;
34549;SDS011;66080;52.078;5.626;2023-07-29T01:32:55;3.13;;;2.00;;
34549;SDS011;66080;52.078;5.626;2023-07-29T01:38:17;2.67;;;2.30;;
34549;SDS011;66080;52.078;5.626;2023-07-29T01:40:44;4.40;;;2.37;;
34549;SDS011;66080;52.078;5.626;2023-07-29T01:43:12;4.07;;;2.50;;
34549;SDS011;66080;52.078;5.626;2023-07-29T01:45:38;3.90;;;2.85;;
34549;SDS011;66080;52.078;5.626;2023-07-29T01:48:04;2.47;;;2.28;;
34549;SDS011;66080;52.078;5.626;2023-07-29T01:50:31;3.08;;;2.78;;
34549;SDS011;66080;52.078;5.626;2023-07-29T01:52:57;4.25;;;2.33;;
34549;SDS011;66080;52.078;5.626;2023-07-29T01:55:23;3.40;;;2.65;;
34549;SDS011;66080;52.078;5.626;2023-07-29T01:57:48;2.42;;;2.08;;
34549;SDS011;66080;52.078;5.626;2023-07-29T02:00:15;4.55;;;3.05;;
34549;SDS011;66080;52.078;5.626;2023-07-29T02:02:40;2.95;;;2.75;;
34549;SDS011;66080;52.078;5.626;2023-07-29T02:05:06;4.78;;;2.67;;
34549;SDS011;66080;52.078;5.626;2023-07-29T02:07:32;3.30;;;2.13;;
34549;SDS011;66080;52.078;5.626;2023-07-29T02:09:57;3.03;;;2.70;;
34549;SDS011;66080;52.078;5.626;2023-07-29T02:12:23;5.00;;;2.92;;
34549;SDS011;66080;52.078;5.626;2023-07-29T02:14:49;3.10;;;2.15;;
34549;SDS011;66080;52.078;5.626;2023-07-29T02:17:15;3.10;;;2.80;;
34549;SDS011;66080;52.078;5.626;2023-07-29T02:19:40;3.63;;;2.70;;
34549;SDS011;66080;52.078;5.626;2023-07-29T02:22:06;4.30;;;2.80;;
34549;SDS011;66080;52.078;5.626;2023-07-29T02:24:31;2.97;;;2.67;;
34549;SDS011;66080;52.078;5.626;2023-07-29T02:26:57;5.57;;;3.15;;
34549;SDS011;66080;52.078;5.626;2023-07-29T02:29:22;2.72;;;2.53;;
34549;SDS011;66080;52.078;5.626;2023-07-29T02:31:49;6.00;;;3.88;;
34549;SDS011;66080;52.078;5.626;2023-07-29T02:34:15;8.15;;;4.25;;
34549;SDS011;66080;52.078;5.626;2023-07-29T02:36:41;6.95;;;3.97;;
34549;SDS011;66080;52.078;5.626;2023-07-29T02:39:06;6.25;;;4.57;;
34549;SDS011;66080;52.078;5.626;2023-07-29T02:41:32;11.63;;;5.80;;
34549;SDS011;66080;52.078;5.626;2023-07-29T02:43:57;10.30;;;5.13;;
34549;SDS011;66080;52.078;5.626;2023-07-29T02:46:23;11.95;;;5.68;;
34549;SDS011;66080;52.078;5.626;2023-07-29T02:48:49;5.90;;;5.13;;
34549;SDS011;66080;52.078;5.626;2023-07-29T02:51:15;12.00;;;4.45;;
34549;SDS011;66080;52.078;5.626;2023-07-29T02:53:40;8.73;;;5.32;;
34549;SDS011;66080;52.078;5.626;2023-07-29T02:56:06;9.15;;;5.07;;
34549;SDS011;66080;52.078;5.626;2023-07-29T02:58:34;9.07;;;5.57;;
34549;SDS011;66080;52.078;5.626;2023-07-29T03:01:00;14.52;;;5.15;;
34549;SDS011;66080;52.078;5.626;2023-07-29T03:03:27;10.57;;;5.47;;
34549;SDS011;66080;52.078;5.626;2023-07-29T03:06:03;8.45;;;4.93;;
34549;SDS011;66080;52.078;5.626;2023-07-29T03:08:30;9.18;;;6.03;;
34549;SDS011;66080;52.078;5.626;2023-07-29T03:10:56;7.07;;;5.72;;
34549;SDS011;66080;52.078;5.626;2023-07-29T03:13:22;9.25;;;5.28;;
34549;SDS011;66080;52.078;5.626;2023-07-29T03:15:47;10.57;;;5.05;;
34549;SDS011;66080;52.078;5.626;2023-07-29T03:18:13;8.32;;;5.00;;
34549;SDS011;66080;52.078;5.626;2023-07-29T03:20:39;9.80;;;4.88;;
34549;SDS011;66080;52.078;5.626;2023-07-29T03:23:05;6.78;;;4.65;;
34549;SDS011;66080;52.078;5.626;2023-07-29T03:25:31;6.45;;;4.32;;
34549;SDS011;66080;52.078;5.626;2023-07-29T03:27:56;5.78;;;4.82;;
34549;SDS011;66080;52.078;5.626;2023-07-29T03:30:22;8.30;;;4.93;;
34549;SDS011;66080;52.078;5.626;2023-07-29T03:32:48;9.32;;;4.35;;
34549;SDS011;66080;52.078;5.626;2023-07-29T03:35:14;8.13;;;4.05;;
34549;SDS011;66080;52.078;5.626;2023-07-29T03:37:40;5.88;;;4.43;;
34549;SDS011;66080;52.078;5.626;2023-07-29T03:40:06;6.13;;;4.05;;
34549;SDS011;66080;52.078;5.626;2023-07-29T03:42:32;4.95;;;4.00;;
34549;SDS011;66080;52.078;5.626;2023-07-29T03:44:58;6.00;;;4.65;;
34549;SDS011;66080;52.078;5.626;2023-07-29T03:47:23;4.97;;;3.38;;
34549;SDS011;66080;52.078;5.626;2023-07-29T03:49:49;11.68;;;5.10;;
34549;SDS011;66080;52.078;5.626;2023-07-29T03:52:15;7.15;;;4.25;;
34549;SDS011;66080;52.078;5.626;2023-07-29T03:54:40;6.00;;;4.03;;
34549;SDS011;66080;52.078;5.626;2023-07-29T03:57:06;9.10;;;3.70;;
34549;SDS011;66080;52.078;5.626;2023-07-29T03:59:31;5.05;;;3.63;;
34549;SDS011;66080;52.078;5.626;2023-07-29T04:01:57;7.47;;;3.17;;
34549;SDS011;66080;52.078;5.626;2023-07-29T04:04:22;5.10;;;3.67;;
34549;SDS011;66080;52.078;5.626;2023-07-29T04:06:48;6.22;;;3.55;;
34549;SDS011;66080;52.078;5.626;2023-07-29T04:09:14;5.53;;;3.58;;
34549;SDS011;66080;52.078;5.626;2023-07-29T04:11:39;8.05;;;3.75;;
34549;SDS011;66080;52.078;5.626;2023-07-29T04:14:05;12.45;;;3.97;;
34549;SDS011;66080;52.078;5.626;2023-07-29T04:16:30;5.50;;;4.00;;
34549;SDS011;66080;52.078;5.626;2023-07-29T04:18:56;7.38;;;3.58;;
34549;SDS011;66080;52.078;5.626;2023-07-29T04:21:21;4.63;;;3.30;;
34549;SDS011;66080;52.078;5.626;2023-07-29T04:23:47;6.72;;;3.72;;
34549;SDS011;66080;52.078;5.626;2023-07-29T04:26:12;4.78;;;3.58;;
34549;SDS011;66080;52.078;5.626;2023-07-29T04:28:38;7.38;;;3.17;;
34549;SDS011;66080;52.078;5.626;2023-07-29T04:31:03;4.30;;;3.30;;
34549;SDS011;66080;52.078;5.626;2023-07-29T04:33:29;3.08;;;2.72;;
34549;SDS011;66080;52.078;5.626;2023-07-29T04:35:56;6.00;;;3.25;;
34549;SDS011;66080;52.078;5.626;2023-07-29T04:38:21;4.25;;;2.60;;
34549;SDS011;66080;52.078;5.626;2023-07-29T04:40:49;7.88;;;4.55;;
34549;SDS011;66080;52.078;5.626;2023-07-29T04:43:15;5.05;;;3.25;;
34549;SDS011;66080;52.078;5.626;2023-07-29T04:45:44;5.30;;;3.35;;
34549;SDS011;66080;52.078;5.626;2023-07-29T04:48:09;3.67;;;2.58;;
34549;SDS011;66080;52.078;5.626;2023-07-29T04:50:35;3.97;;;3.15;;
34549;SDS011;66080;52.078;5.626;2023-07-29T04:53:00;3.33;;;2.40;;
34549;SDS011;66080;52.078;5.626;2023-07-29T04:55:26;4.28;;;3.22;;
34549;SDS011;66080;52.078;5.626;2023-07-29T04:57:51;10.05;;;3.35;;
34549;SDS011;66080;52.078;5.626;2023-07-29T05:00:17;6.80;;;3.05;;
34549;SDS011;66080;52.078;5.626;2023-07-29T05:02:42;5.75;;;3.28;;
34549;SDS011;66080;52.078;5.626;2023-07-29T05:05:08;4.50;;;3.17;;
34549;SDS011;66080;52.078;5.626;2023-07-29T05:07:34;3.00;;;2.40;;
34549;SDS011;66080;52.078;5.626;2023-07-29T05:09:59;6.30;;;2.90;;
34549;SDS011;66080;52.078;5.626;2023-07-29T05:12:25;4.30;;;2.90;;
34549;SDS011;66080;52.078;5.626;2023-07-29T05:14:50;6.47;;;3.10;;
34549;SDS011;66080;52.078;5.626;2023-07-29T05:17:16;5.30;;;2.75;;
34549;SDS011;66080;52.078;5.626;2023-07-29T05:19:41;6.47;;;2.67;;
34549;SDS011;66080;52.078;5.626;2023-07-29T05:22:07;4.65;;;3.50;;
34549;SDS011;66080;52.078;5.626;2023-07-29T05:24:33;4.30;;;3.03;;
34549;SDS011;66080;52.078;5.626;2023-07-29T05:26:58;6.13;;;2.80;;
34549;SDS011;66080;52.078;5.626;2023-07-29T05:29:24;5.95;;;2.97;;
34549;SDS011;66080;52.078;5.626;2023-07-29T05:31:49;5.82;;;3.47;;
34549;SDS011;66080;52.078;5.626;2023-07-29T05:34:15;5.15;;;3.15;;
34549;SDS011;66080;52.078;5.626;2023-07-29T05:36:40;8.57;;;3.83;;
34549;SDS011;66080;52.078;5.626;2023-07-29T05:39:06;7.32;;;2.90;;
34549;SDS011;66080;52.078;5.626;2023-07-29T05:41:32;4.88;;;3.05;;
34549;SDS011;66080;52.078;5.626;2023-07-29T05:43:58;3.72;;;2.78;;
34549;SDS011;66080;52.078;5.626;2023-07-29T05:46:23;6.82;;;3.85;;
34549;SDS011;66080;52.078;5.626;2023-07-29T05:48:49;5.85;;;2.95;;
34549;SDS011;66080;52.078;5.626;2023-07-29T05:51:14;6.90;;;3.40;;
34549;SDS011;66080;52.078;5.626;2023-07-29T05:53:40;6.03;;;3.28;;
34549;SDS011;66080;52.078;5.626;2023-07-29T05:56:05;6.63;;;4.70;;
34549;SDS011;66080;52.078;5.626;2023-07-29T05:58:31;6.40;;;3.70;;
34549;SDS011;66080;52.078;5.626;2023-07-29T06:00:57;3.97;;;3.00;;
34549;SDS011;66080;52.078;5.626;2023-07-29T06:03:23;5.80;;;4.20;;
34549;SDS011;66080;52.078;5.626;2023-07-29T06:05:49;8.05;;;3.80;;
34549;SDS011;66080;52.078;5.626;2023-07-29T06:08:15;4.72;;;3.35;;
34549;SDS011;66080;52.078;5.626;2023-07-29T06:10:40;6.80;;;4.13;;
34549;SDS011;66080;52.078;5.626;2023-07-29T06:13:06;7.80;;;3.67;;
34549;SDS011;66080;52.078;5.626;2023-07-29T06:15:31;6.15;;;4.40;;
34549;SDS011;66080;52.078;5.626;2023-07-29T06:17:57;6.88;;;3.25;;
34549;SDS011;66080;52.078;5.626;2023-07-29T06:20:22;5.13;;;3.60;;
34549;SDS011;66080;52.078;5.626;2023-07-29T06:22:48;7.80;;;3.58;;
34549;SDS011;66080;52.078;5.626;2023-07-29T06:25:14;5.93;;;3.92;;
34549;SDS011;66080;52.078;5.626;2023-07-29T06:27:39;8.50;;;4.95;;
34549;SDS011;66080;52.078;5.626;2023-07-29T06:30:05;6.75;;;4.30;;
34549;SDS011;66080;52.078;5.626;2023-07-29T06:32:31;6.20;;;4.60;;
34549;SDS011;66080;52.078;5.626;2023-07-29T06:34:56;7.72;;;4.93;;
34549;SDS011;66080;52.078;5.626;2023-07-29T06:37:22;5.47;;;3.67;;
34549;SDS011;66080;52.078;5.626;2023-07-29T06:39:48;5.13;;;4.03;;
34549;SDS011;66080;52.078;5.626;2023-07-29T06:42:13;5.60;;;4.32;;
34549;SDS011;66080;52.078;5.626;2023-07-29T06:44:39;7.05;;;3.63;;
34549;SDS011;66080;52.078;5.626;2023-07-29T06:47:05;5.20;;;3.85;;
34549;SDS011;66080;52.078;5.626;2023-07-29T06:49:30;6.88;;;3.95;;
34549;SDS011;66080;52.078;5.626;2023-07-29T06:51:56;8.02;;;3.85;;
34549;SDS011;66080;52.078;5.626;2023-07-29T06:54:25;6.65;;;3.83;;
34549;SDS011;66080;52.078;5.626;2023-07-29T06:56:53;7.15;;;3.60;;
34549;SDS011;66080;52.078;5.626;2023-07-29T06:59:19;6.35;;;4.72;;
34549;SDS011;66080;52.078;5.626;2023-07-29T07:01:45;7.75;;;4.30;;
34549;SDS011;66080;52.078;5.626;2023-07-29T07:04:10;8.60;;;5.60;;
34549;SDS011;66080;52.078;5.626;2023-07-29T07:06:36;6.55;;;4.97;;
34549;SDS011;66080;52.078;5.626;2023-07-29T07:09:01;6.85;;;5.22;;
34549;SDS011;66080;52.078;5.626;2023-07-29T07:11:27;5.18;;;4.18;;
34549;SDS011;66080;52.078;5.626;2023-07-29T07:13:53;7.50;;;5.13;;
34549;SDS011;66080;52.078;5.626;2023-07-29T07:16:18;8.13;;;4.93;;
34549;SDS011;66080;52.078;5.626;2023-07-29T07:18:44;6.57;;;4.43;;
34549;SDS011;66080;52.078;5.626;2023-07-29T07:21:10;9.18;;;5.47;;
34549;SDS011;66080;52.078;5.626;2023-07-29T07:23:35;10.73;;;5.68;;
34549;SDS011;66080;52.078;5.626;2023-07-29T07:26:01;9.68;;;5.35;;
34549;SDS011;66080;52.078;5.626;2023-07-29T07:28:27;7.85;;;5.78;;
34549;SDS011;66080;52.078;5.626;2023-07-29T07:30:52;8.38;;;5.75;;
34549;SDS011;66080;52.078;5.626;2023-07-29T07:33:18;9.45;;;5.82;;
34549;SDS011;66080;52.078;5.626;2023-07-29T07:35:43;8.82;;;5.80;;
34549;SDS011;66080;52.078;5.626;2023-07-29T07:38:09;7.00;;;6.15;;
34549;SDS011;66080;52.078;5.626;2023-07-29T07:40:35;6.68;;;5.03;;
34549;SDS011;66080;52.078;5.626;2023-07-29T07:43:01;8.63;;;6.05;;
34549;SDS011;66080;52.078;5.626;2023-07-29T07:45:27;7.15;;;5.80;;
34549;SDS011;66080;52.078;5.626;2023-07-29T07:47:52;9.63;;;5.13;;
34549;SDS011;66080;52.078;5.626;2023-07-29T07:50:19;5.75;;;4.70;;
34549;SDS011;66080;52.078;5.626;2023-07-29T07:52:45;9.18;;;6.30;;
34549;SDS011;66080;52.078;5.626;2023-07-29T07:55:11;8.50;;;5.38;;
34549;SDS011;66080;52.078;5.626;2023-07-29T07:57:36;6.07;;;4.90;;
34549;SDS011;66080;52.078;5.626;2023-07-29T08:00:02;14.38;;;6.53;;
34549;SDS011;66080;52.078;5.626;2023-07-29T08:02:29;5.95;;;4.90;;
34549;SDS011;66080;52.078;5.626;2023-07-29T08:04:55;6.25;;;4.68;;
34549;SDS011;66080;52.078;5.626;2023-07-29T08:07:20;6.82;;;4.97;;
34549;SDS011;66080;52.078;5.626;2023-07-29T08:09:46;8.70;;;5.75;;
34549;SDS011;66080;52.078;5.626;2023-07-29T08:12:11;4.82;;;4.20;;
34549;SDS011;66080;52.078;5.626;2023-07-29T08:14:37;5.53;;;5.03;;
34549;SDS011;66080;52.078;5.626;2023-07-29T08:17:02;5.82;;;5.25;;
34549;SDS011;66080;52.078;5.626;2023-07-29T08:19:28;4.72;;;4.32;;
34549;SDS011;66080;52.078;5.626;2023-07-29T08:21:54;6.28;;;4.38;;
34549;SDS011;66080;52.078;5.626;2023-07-29T08:24:19;6.35;;;4.50;;
34549;SDS011;66080;52.078;5.626;2023-07-29T08:26:45;5.93;;;4.55;;
34549;SDS011;66080;52.078;5.626;2023-07-29T08:29:11;6.28;;;4.45;;
34549;SDS011;66080;52.078;5.626;2023-07-29T08:31:37;5.97;;;4.20;;
34549;SDS011;66080;52.078;5.626;2023-07-29T08:34:03;5.40;;;4.40;;
34549;SDS011;66080;52.078;5.626;2023-07-29T08:36:28;5.22;;;3.85;;
34549;SDS011;66080;52.078;5.626;2023-07-29T08:38:54;4.10;;;3.45;;
34549;SDS011;66080;52.078;5.626;2023-07-29T08:41:21;3.63;;;3.30;;
34549;SDS011;66080;52.078;5.626;2023-07-29T08:46:34;5.20;;;3.25;;
34549;SDS011;66080;52.078;5.626;2023-07-29T08:48:59;5.50;;;4.25;;
34549;SDS011;66080;52.078;5.626;2023-07-29T08:51:27;8.20;;;3.47;;
34549;SDS011;66080;52.078;5.626;2023-07-29T08:53:54;3.47;;;3.17;;
34549;SDS011;66080;52.078;5.626;2023-07-29T08:56:20;3.50;;;2.75;;
34549;SDS011;66080;52.078;5.626;2023-07-29T08:58:46;5.97;;;2.47;;
34549;SDS011;66080;52.078;5.626;2023-07-29T09:01:11;4.80;;;2.47;;
34549;SDS011;66080;52.078;5.626;2023-07-29T09:03:37;3.63;;;2.10;;
34549;SDS011;66080;52.078;5.626;2023-07-29T09:06:03;3.50;;;2.33;;
34549;SDS011;66080;52.078;5.626;2023-07-29T09:08:28;4.43;;;2.42;;
34549;SDS011;66080;52.078;5.626;2023-07-29T09:10:54;6.25;;;2.85;;
34549;SDS011;66080;52.078;5.626;2023-07-29T09:13:21;5.97;;;2.90;;
34549;SDS011;66080;52.078;5.626;2023-07-29T09:15:46;5.65;;;3.10;;
34549;SDS011;66080;52.078;5.626;2023-07-29T09:18:16;4.32;;;3.72;;
34549;SDS011;66080;52.078;5.626;2023-07-29T09:20:43;4.65;;;3.58;;
34549;SDS011;66080;52.078;5.626;2023-07-29T09:23:10;3.63;;;3.33;;
34549;SDS011;66080;52.078;5.626;2023-07-29T09:25:36;3.78;;;3.28;;
34549;SDS011;66080;52.078;5.626;2023-07-29T09:28:07;8.23;;;3.85;;
34549;SDS011;66080;52.078;5.626;2023-07-29T09:30:34;4.97;;;3.45;;
34549;SDS011;66080;52.078;5.626;2023-07-29T09:33:00;3.65;;;3.33;;
34549;SDS011;66080;52.078;5.626;2023-07-29T09:35:27;3.10;;;2.60;;
34549;SDS011;66080;52.078;5.626;2023-07-29T09:37:54;4.60;;;3.05;;
34549;SDS011;66080;52.078;5.626;2023-07-29T09:40:20;4.82;;;2.58;;
34549;SDS011;66080;52.078;5.626;2023-07-29T09:42:53;4.55;;;2.92;;
34549;SDS011;66080;52.078;5.626;2023-07-29T09:45:20;6.70;;;3.97;;
34549;SDS011;66080;52.078;5.626;2023-07-29T09:47:49;5.30;;;2.67;;
34549;SDS011;66080;52.078;5.626;2023-07-29T09:50:16;5.80;;;2.70;;
34549;SDS011;66080;52.078;5.626;2023-07-29T09:52:42;6.50;;;3.08;;
34549;SDS011;66080;52.078;5.626;2023-07-29T09:55:12;2.63;;;2.40;;
34549;SDS011;66080;52.078;5.626;2023-07-29T09:57:41;4.15;;;2.55;;
34549;SDS011;66080;52.078;5.626;2023-07-29T10:00:10;2.63;;;2.33;;
34549;SDS011;66080;52.078;5.626;2023-07-29T10:02:40;2.75;;;2.40;;
34549;SDS011;66080;52.078;5.626;2023-07-29T10:05:07;5.53;;;3.17;;
34549;SDS011;66080;52.078;5.626;2023-07-29T10:07:34;3.03;;;2.40;;
34549;SDS011;66080;52.078;5.626;2023-07-29T10:10:04;9.32;;;2.28;;
34549;SDS011;66080;52.078;5.626;2023-07-29T10:12:31;3.10;;;2.70;;
34549;SDS011;66080;52.078;5.626;2023-07-29T10:15:02;2.90;;;2.20;;
34549;SDS011;66080;52.078;5.626;2023-07-29T10:17:29;3.78;;;1.90;;
34549;SDS011;66080;52.078;5.626;2023-07-29T10:19:57;2.40;;;2.00;;
34549;SDS011;66080;52.078;5.626;2023-07-29T10:22:24;2.08;;;1.60;;
34549;SDS011;66080;52.078;5.626;2023-07-29T10:24:54;1.98;;;1.42;;
34549;SDS011;66080;52.078;5.626;2023-07-29T10:27:24;2.78;;;2.00;;
34549;SDS011;66080;52.078;5.626;2023-07-29T10:29:51;3.78;;;2.00;;
34549;SDS011;66080;52.078;5.626;2023-07-29T10:32:20;6.82;;;2.00;;
34549;SDS011;66080;52.078;5.626;2023-07-29T10:34:50;4.22;;;2.22;;
34549;SDS011;66080;52.078;5.626;2023-07-29T10:37:15;2.08;;;1.85;;
34549;SDS011;66080;52.078;5.626;2023-07-29T10:39:44;3.00;;;2.15;;
34549;SDS011;66080;52.078;5.626;2023-07-29T10:42:17;2.15;;;1.70;;
34549;SDS011;66080;52.078;5.626;2023-07-29T10:47:21;3.88;;;1.48;;
34549;SDS011;66080;52.078;5.626;2023-07-29T10:49:58;4.03;;;1.40;;
34549;SDS011;66080;52.078;5.626;2023-07-29T10:54:59;1.98;;;1.17;;
34549;SDS011;66080;52.078;5.626;2023-07-29T10:57:32;1.58;;;1.42;;
34549;SDS011;66080;52.078;5.626;2023-07-29T10:59:59;1.77;;;1.27;;
34549;SDS011;66080;52.078;5.626;2023-07-29T11:02:32;1.60;;;1.30;;
34549;SDS011;66080;52.078;5.626;2023-07-29T11:05:08;3.85;;;1.27;;
34549;SDS011;66080;52.078;5.626;2023-07-29T11:07:45;4.80;;;1.85;;
34549;SDS011;66080;52.078;5.626;2023-07-29T11:10:14;4.70;;;1.50;;
34549;SDS011;66080;52.078;5.626;2023-07-29T11:12:41;3.45;;;1.50;;
34549;SDS011;66080;52.078;5.626;2023-07-29T11:17:38;2.03;;;1.38;;
34549;SDS011;66080;52.078;5.626;2023-07-29T11:20:09;1.65;;;1.55;;
34549;SDS011;66080;52.078;5.626;2023-07-29T11:22:36;1.42;;;1.33;;
34549;SDS011;66080;52.078;5.626;2023-07-29T11:25:03;1.67;;;1.55;;
34549;SDS011;66080;52.078;5.626;2023-07-29T11:27:30;1.90;;;1.50;;
34549;SDS011;66080;52.078;5.626;2023-07-29T11:29:59;8.18;;;1.48;;
34549;SDS011;66080;52.078;5.626;2023-07-29T11:34:51;4.85;;;1.83;;
34549;SDS011;66080;52.078;5.626;2023-07-29T11:37:17;3.28;;;1.90;;
34549;SDS011;66080;52.078;5.626;2023-07-29T11:39:46;2.45;;;2.22;;
34549;SDS011;66080;52.078;5.626;2023-07-29T11:42:12;2.33;;;2.13;;
34549;SDS011;66080;52.078;5.626;2023-07-29T11:44:38;6.97;;;2.58;;
34549;SDS011;66080;52.078;5.626;2023-07-29T11:47:07;2.25;;;1.95;;
34549;SDS011;66080;52.078;5.626;2023-07-29T11:49:34;6.93;;;2.70;;
34549;SDS011;66080;52.078;5.626;2023-07-29T11:51:59;3.92;;;3.13;;
34549;SDS011;66080;52.078;5.626;2023-07-29T11:54:26;5.15;;;2.53;;
34549;SDS011;66080;52.078;5.626;2023-07-29T11:56:51;3.75;;;2.30;;
34549;SDS011;66080;52.078;5.626;2023-07-29T11:59:17;3.78;;;2.72;;
34549;SDS011;66080;52.078;5.626;2023-07-29T12:01:42;6.55;;;2.95;;
34549;SDS011;66080;52.078;5.626;2023-07-29T12:04:08;7.55;;;3.30;;
34549;SDS011;66080;52.078;5.626;2023-07-29T12:06:34;4.22;;;3.00;;
34549;SDS011;66080;52.078;5.626;2023-07-29T12:09:00;7.80;;;3.25;;
34549;SDS011;66080;52.078;5.626;2023-07-29T12:11:26;6.95;;;3.67;;
34549;SDS011;66080;52.078;5.626;2023-07-29T12:13:53;5.25;;;3.20;;
34549;SDS011;66080;52.078;5.626;2023-07-29T12:16:19;4.07;;;3.78;;
34549;SDS011;66080;52.078;5.626;2023-07-29T12:18:44;3.78;;;3.25;;
34549;SDS011;66080;52.078;5.626;2023-07-29T12:21:10;3.20;;;2.78;;
34549;SDS011;66080;52.078;5.626;2023-07-29T12:23:36;2.65;;;2.45;;
34549;SDS011;66080;52.078;5.626;2023-07-29T12:26:01;4.28;;;3.53;;
34549;SDS011;66080;52.078;5.626;2023-07-29T12:28:27;3.95;;;2.30;;
34549;SDS011;66080;52.078;5.626;2023-07-29T12:30:53;3.25;;;2.70;;
34549;SDS011;66080;52.078;5.626;2023-07-29T12:33:32;3.35;;;3.05;;
34549;SDS011;66080;52.078;5.626;2023-07-29T12:35:58;3.15;;;2.85;;
34549;SDS011;66080;52.078;5.626;2023-07-29T12:38:27;4.63;;;3.53;;
34549;SDS011;66080;52.078;5.626;2023-07-29T12:40:54;4.10;;;3.30;;
34549;SDS011;66080;52.078;5.626;2023-07-29T12:43:20;2.97;;;2.67;;
34549;SDS011;66080;52.078;5.626;2023-07-29T12:45:46;3.50;;;3.15;;
34549;SDS011;66080;52.078;5.626;2023-07-29T12:48:14;4.35;;;2.70;;
34549;SDS011;66080;52.078;5.626;2023-07-29T12:50:40;12.98;;;2.45;;
34549;SDS011;66080;52.078;5.626;2023-07-29T12:53:06;8.73;;;2.45;;
34549;SDS011;66080;52.078;5.626;2023-07-29T12:55:35;6.55;;;2.70;;
34549;SDS011;66080;52.078;5.626;2023-07-29T12:58:01;10.82;;;2.97;;
34549;SDS011;66080;52.078;5.626;2023-07-29T13:00:27;3.72;;;2.20;;
34549;SDS011;66080;52.078;5.626;2023-07-29T13:02:53;2.33;;;2.13;;
34549;SDS011;66080;52.078;5.626;2023-07-29T13:05:19;4.63;;;1.73;;
34549;SDS011;66080;52.078;5.626;2023-07-29T13:07:45;1.92;;;1.83;;
34549;SDS011;66080;52.078;5.626;2023-07-29T13:10:10;3.92;;;1.40;;
34549;SDS011;66080;52.078;5.626;2023-07-29T13:12:37;2.88;;;2.05;;
34549;SDS011;66080;52.078;5.626;2023-07-29T13:15:02;4.13;;;1.25;;
34549;SDS011;66080;52.078;5.626;2023-07-29T13:17:28;2.05;;;1.27;;
34549;SDS011;66080;52.078;5.626;2023-07-29T13:19:54;1.75;;;1.45;;
34549;SDS011;66080;52.078;5.626;2023-07-29T13:22:20;1.88;;;1.70;;
34549;SDS011;66080;52.078;5.626;2023-07-29T13:24:46;2.80;;;1.80;;
34549;SDS011;66080;52.078;5.626;2023-07-29T13:27:12;1.80;;;1.70;;
34549;SDS011;66080;52.078;5.626;2023-07-29T13:29:37;2.60;;;1.50;;
34549;SDS011;66080;52.078;5.626;2023-07-29T13:32:04;2.63;;;2.40;;
34549;SDS011;66080;52.078;5.626;2023-07-29T13:34:30;3.40;;;2.67;;
34549;SDS011;66080;52.078;5.626;2023-07-29T13:36:55;3.67;;;2.70;;
34549;SDS011;66080;52.078;5.626;2023-07-29T13:39:21;3.60;;;3.30;;
34549;SDS011;66080;52.078;5.626;2023-07-29T13:41:46;3.28;;;2.95;;
34549;SDS011;66080;52.078;5.626;2023-07-29T13:44:12;4.75;;;2.95;;
34549;SDS011;66080;52.078;5.626;2023-07-29T13:46:37;3.97;;;3.20;;
34549;SDS011;66080;52.078;5.626;2023-07-29T13:49:03;5.55;;;3.47;;
34549;SDS011;66080;52.078;5.626;2023-07-29T13:51:29;4.25;;;3.85;;
34549;SDS011;66080;52.078;5.626;2023-07-29T13:53:54;4.32;;;3.20;;
34549;SDS011;66080;52.078;5.626;2023-07-29T13:56:21;4.03;;;3.33;;
34549;SDS011;66080;52.078;5.626;2023-07-29T13:58:47;4.45;;;4.05;;
34549;SDS011;66080;52.078;5.626;2023-07-29T14:01:12;2.83;;;2.63;;
34549;SDS011;66080;52.078;5.626;2023-07-29T14:03:38;6.90;;;2.78;;
34549;SDS011;66080;52.078;5.626;2023-07-29T14:06:04;3.42;;;3.05;;
34549;SDS011;66080;52.078;5.626;2023-07-29T14:08:29;4.03;;;2.15;;
34549;SDS011;66080;52.078;5.626;2023-07-29T14:10:55;2.22;;;2.13;;
34549;SDS011;66080;52.078;5.626;2023-07-29T14:13:20;3.20;;;2.47;;
34549;SDS011;66080;52.078;5.626;2023-07-29T14:15:46;1.90;;;1.80;;
34549;SDS011;66080;52.078;5.626;2023-07-29T14:18:12;2.70;;;1.85;;
34549;SDS011;66080;52.078;5.626;2023-07-29T14:20:38;2.33;;;2.10;;
34549;SDS011;66080;52.078;5.626;2023-07-29T14:23:04;1.52;;;1.42;;
34549;SDS011;66080;52.078;5.626;2023-07-29T14:25:29;1.30;;;1.20;;
34549;SDS011;66080;52.078;5.626;2023-07-29T14:27:55;2.13;;;2.03;;
34549;SDS011;66080;52.078;5.626;2023-07-29T14:30:20;2.08;;;1.85;;
34549;SDS011;66080;52.078;5.626;2023-07-29T14:32:46;2.90;;;1.90;;
34549;SDS011;66080;52.078;5.626;2023-07-29T14:35:11;2.20;;;1.65;;
34549;SDS011;66080;52.078;5.626;2023-07-29T14:37:37;3.13;;;1.95;;
34549;SDS011;66080;52.078;5.626;2023-07-29T14:40:03;1.67;;;1.58;;
34549;SDS011;66080;52.078;5.626;2023-07-29T14:42:30;2.47;;;2.10;;
34549;SDS011;66080;52.078;5.626;2023-07-29T14:44:55;2.53;;;1.98;;
34549;SDS011;66080;52.078;5.626;2023-07-29T14:47:21;1.40;;;1.30;;
34549;SDS011;66080;52.078;5.626;2023-07-29T14:49:46;3.15;;;2.08;;
34549;SDS011;66080;52.078;5.626;2023-07-29T14:52:12;2.08;;;1.90;;
34549;SDS011;66080;52.078;5.626;2023-07-29T14:54:38;2.28;;;1.60;;
34549;SDS011;66080;52.078;5.626;2023-07-29T14:57:05;1.58;;;1.48;;
34549;SDS011;66080;52.078;5.626;2023-07-29T14:59:31;2.08;;;1.70;;
34549;SDS011;66080;52.078;5.626;2023-07-29T15:01:57;2.50;;;1.52;;
34549;SDS011;66080;52.078;5.626;2023-07-29T15:04:22;3.17;;;1.30;;